createdAt,value
2023-10-11T05:44:44.636Z,9.60
2023-10-11T05:47:11.550Z,9.64
2023-10-11T05:49:38.345Z,9.64
2023-10-11T05:52:04.742Z,9.58
2023-10-11T05:54:31.562Z,9.57
2023-10-11T05:56:58.755Z,9.63
2023-10-11T05:59:27.907Z,9.66
2023-10-11T06:01:54.669Z,9.69
2023-10-11T06:04:21.080Z,9.65
2023-10-11T06:06:47.798Z,9.70
2023-10-11T06:09:14.309Z,9.76
2023-10-11T06:11:40.860Z,9.82
2023-10-11T06:14:07.380Z,9.90
2023-10-11T06:16:34.826Z,9.91
2023-10-11T06:19:01.342Z,9.95
2023-10-11T06:21:27.852Z,9.87
2023-10-11T06:23:54.323Z,9.83
2023-10-11T06:26:26.317Z,9.83
2023-10-11T06:28:52.789Z,9.89
2023-10-11T06:31:22.390Z,9.83
2023-10-11T06:33:52.965Z,9.85
2023-10-11T06:36:19.668Z,9.96
2023-10-11T06:38:46.051Z,10.03
2023-10-11T06:41:12.669Z,9.91
2023-10-11T06:43:40.163Z,9.89
2023-10-11T06:46:06.649Z,9.90
2023-10-11T06:48:33.207Z,10.02
2023-10-11T06:50:59.968Z,10.07
2023-10-11T06:53:26.445Z,10.20
2023-10-11T06:55:53.025Z,10.21
2023-10-11T06:58:19.518Z,10.26
2023-10-11T07:00:45.958Z,10.23
2023-10-11T07:03:15.037Z,10.26
2023-10-11T07:05:41.533Z,10.37
2023-10-11T07:08:07.950Z,10.50
2023-10-11T07:10:34.573Z,10.50
2023-10-11T07:13:01.310Z,10.65
2023-10-11T07:15:28.033Z,10.81
2023-10-11T07:17:54.477Z,10.83
2023-10-11T07:20:20.850Z,10.91
2023-10-11T07:22:48.518Z,10.97
2023-10-11T07:25:15.077Z,11.03
2023-10-11T07:27:41.513Z,11.10
2023-10-11T07:30:08.286Z,11.31
2023-10-11T07:32:37.685Z,11.45
2023-10-11T07:35:04.388Z,11.47
2023-10-11T07:37:30.804Z,11.53
2023-10-11T07:39:58.230Z,11.63
2023-10-11T07:42:24.703Z,11.88
2023-10-11T07:44:51.220Z,11.95
2023-10-11T07:47:18.083Z,12.09
2023-10-11T07:49:44.468Z,12.33
2023-10-11T07:52:13.685Z,12.60
2023-10-11T07:54:40.309Z,12.81
2023-10-11T07:57:07.826Z,12.97
2023-10-11T07:59:36.426Z,13.07
